createdAt,value
2023-04-18T00:01:24.930Z,5.66
2023-04-18T00:03:52.023Z,5.76
2023-04-18T00:06:19.408Z,5.79
2023-04-18T00:08:46.576Z,5.88
2023-04-18T00:11:13.156Z,5.87
2023-04-18T00:13:40.789Z,5.92
2023-04-18T00:16:13.285Z,5.91
2023-04-18T00:18:40.211Z,5.90
2023-04-18T00:21:08.591Z,5.91
2023-04-18T00:23:35.912Z,5.87
2023-04-18T00:26:02.775Z,5.93
2023-04-18T00:28:29.547Z,5.91
2023-04-18T00:30:56.379Z,5.80
2023-04-18T00:33:23.091Z,5.68
2023-04-18T00:35:49.700Z,5.60
2023-04-18T00:38:16.380Z,5.53
2023-04-18T00:40:43.224Z,5.56
2023-04-18T00:43:09.888Z,5.56
2023-04-18T00:45:37.224Z,5.62
2023-04-18T00:48:04.271Z,5.64
2023-04-18T00:50:31.649Z,5.68
2023-04-18T00:52:58.562Z,5.74
2023-04-18T00:55:25.544Z,5.77
2023-04-18T00:57:52.311Z,5.71
2023-04-18T01:00:19.126Z,5.59
2023-04-18T01:02:47.177Z,5.58
2023-04-18T01:05:14.051Z,5.56
2023-04-18T01:07:41.819Z,5.55
2023-04-18T01:10:10.284Z,5.54
2023-04-18T01:12:37.742Z,5.51
2023-04-18T01:15:05.756Z,5.53
2023-04-18T01:17:34.686Z,5.50
2023-04-18T01:20:06.405Z,5.48
2023-04-18T01:22:33.582Z,5.48
2023-04-18T01:25:00.285Z,5.44
2023-04-18T01:27:26.944Z,5.49
2023-04-18T01:29:53.707Z,5.48
2023-04-18T01:32:20.692Z,5.57
2023-04-18T01:34:47.681Z,5.68
2023-04-18T01:37:14.500Z,5.77
2023-04-18T01:39:41.116Z,5.90
2023-04-18T01:42:07.806Z,5.91
2023-04-18T01:44:34.472Z,5.95
2023-04-18T01:47:01.204Z,5.91
2023-04-18T01:49:27.924Z,5.95
2023-04-18T01:51:54.601Z,5.92
2023-04-18T01:54:21.257Z,5.90
2023-04-18T01:56:47.914Z,5.94
2023-04-18T01:59:14.531Z,5.99
2023-04-18T02:01:41.143Z,6.02
2023-04-18T02:04:07.852Z,6.06
2023-04-18T02:06:34.632Z,6.02
2023-04-18T02:09:01.388Z,5.99
2023-04-18T02:11:28.003Z,6.02
2023-04-18T02:13:54.724Z,6.06
2023-04-18T02:16:21.620Z,6.08
2023-04-18T02:18:49.709Z,6.13
2023-04-18T02:21:16.319Z,6.17
2023-04-18T02:23:42.923Z,6.23
2023-04-18T02:26:09.634Z,6.23
2023-04-18T02:28:39.043Z,6.22
2023-04-18T02:31:06.302Z,6.24
2023-04-18T02:33:32.919Z,6.23
2023-04-18T02:35:59.611Z,6.26
2023-04-18T02:38:26.204Z,6.29
2023-04-18T02:40:52.837Z,6.22
2023-04-18T02:43:19.426Z,6.27
2023-04-18T02:45:46.019Z,6.32
2023-04-18T02:48:12.729Z,6.32
2023-04-18T02:50:39.376Z,6.37
2023-04-18T02:53:06.046Z,6.34
2023-04-18T02:55:32.701Z,6.37
2023-04-18T02:57:59.273Z,6.37
2023-04-18T03:00:25.993Z,6.33
2023-04-18T03:02:53.370Z,6.30
2023-04-18T03:05:20.344Z,6.29
2023-04-18T03:07:46.985Z,6.35
2023-04-18T03:10:13.711Z,6.41
2023-04-18T03:12:40.387Z,6.32
2023-04-18T03:15:07.679Z,6.36
2023-04-18T03:17:34.663Z,6.39
2023-04-18T03:20:01.272Z,6.43
2023-04-18T03:22:27.905Z,6.43
2023-04-18T03:24:54.641Z,6.50
2023-04-18T03:27:21.230Z,6.46
2023-04-18T03:29:47.838Z,6.47
2023-04-18T03:32:14.425Z,6.47
2023-04-18T03:34:41.056Z,6.50
2023-04-18T03:37:07.702Z,6.54
2023-04-18T03:39:34.300Z,6.56
2023-04-18T03:42:02.113Z,6.56
2023-04-18T03:44:28.744Z,6.56
2023-04-18T03:46:56.065Z,6.59
2023-04-18T03:49:22.756Z,6.59
2023-04-18T03:51:49.341Z,6.63
2023-04-18T03:54:16.757Z,6.67
2023-04-18T03:56:44.242Z,6.67
2023-04-18T03:59:11.680Z,6.67
2023-04-18T04:01:38.397Z,6.68
2023-04-18T04:04:05.577Z,6.59
2023-04-18T04:06:32.551Z,6.60
2023-04-18T04:08:59.186Z,6.65
2023-04-18T04:11:26.059Z,6.66
2023-04-18T04:13:52.993Z,6.69
2023-04-18T04:16:19.737Z,6.64
2023-04-18T04:18:46.404Z,6.60
2023-04-18T04:21:13.070Z,6.52
2023-04-18T04:23:42.242Z,6.47
2023-04-18T04:26:09.187Z,6.52
2023-04-18T04:28:36.183Z,6.51
2023-04-18T04:31:03.464Z,6.51
2023-04-18T04:33:33.324Z,6.51
2023-04-18T04:36:01.344Z,6.43
2023-04-18T04:38:31.017Z,6.47
2023-04-18T04:40:58.461Z,6.44
2023-04-18T04:43:26.119Z,6.46
2023-04-18T04:45:53.865Z,6.42
2023-04-18T04:48:22.124Z,6.41
2023-04-18T04:50:53.691Z,6.44
2023-04-18T04:53:20.440Z,6.37
2023-04-18T04:55:47.267Z,6.41
2023-04-18T04:58:13.853Z,6.37
2023-04-18T05:00:40.492Z,6.35
2023-04-18T05:03:08.373Z,6.34
2023-04-18T05:05:35.297Z,6.34
2023-04-18T05:08:02.212Z,6.35
2023-04-18T05:10:28.985Z,6.44
2023-04-18T05:12:55.664Z,6.38
2023-04-18T05:15:23.197Z,6.35
2023-04-18T05:17:49.852Z,6.42
2023-04-18T05:20:16.557Z,6.38
2023-04-18T05:22:43.176Z,6.41
2023-04-18T05:25:10.308Z,6.40
2023-04-18T05:27:36.936Z,6.36
2023-04-18T05:30:03.717Z,6.32
2023-04-18T05:32:30.347Z,6.41
2023-04-18T05:34:56.989Z,6.33
2023-04-18T05:37:23.749Z,6.39
2023-04-18T05:39:50.508Z,6.38
2023-04-18T05:42:17.112Z,6.34
2023-04-18T05:44:43.730Z,6.31
2023-04-18T05:47:10.373Z,6.35
2023-04-18T05:49:37.006Z,6.42
2023-04-18T05:52:03.800Z,6.31
2023-04-18T05:54:30.399Z,6.38
2023-04-18T05:56:57.308Z,6.40
2023-04-18T05:59:24.178Z,6.44
2023-04-18T06:01:51.521Z,6.46
2023-04-18T06:04:20.298Z,6.46
2023-04-18T06:06:47.420Z,6.52
2023-04-18T06:09:14.041Z,6.46
2023-04-18T06:11:40.671Z,6.50
2023-04-18T06:14:07.900Z,6.49
2023-04-18T06:16:37.269Z,6.55
2023-04-18T06:19:05.271Z,6.59
2023-04-18T06:21:32.181Z,6.66
2023-04-18T06:23:59.099Z,6.69
2023-04-18T06:26:25.729Z,6.65
2023-04-18T06:28:52.517Z,6.71
2023-04-18T06:31:19.237Z,6.68
2023-04-18T06:33:45.837Z,6.59
2023-04-18T06:36:12.575Z,6.60
2023-04-18T06:38:39.191Z,6.65
2023-04-18T06:41:05.881Z,6.61
2023-04-18T06:43:32.479Z,6.62
2023-04-18T06:45:59.489Z,6.63
2023-04-18T06:48:26.154Z,6.68
2023-04-18T06:50:52.829Z,6.72
2023-04-18T06:53:19.665Z,6.76
2023-04-18T06:55:46.354Z,6.68
2023-04-18T06:58:16.059Z,6.74
2023-04-18T07:00:43.237Z,6.76
2023-04-18T07:03:13.647Z,6.78
2023-04-18T07:05:40.769Z,6.76
2023-04-18T07:08:08.217Z,6.81
2023-04-18T07:10:34.892Z,6.83
2023-04-18T07:13:01.723Z,6.89
2023-04-18T07:15:28.627Z,6.91
2023-04-18T07:17:55.289Z,7.02
2023-04-18T07:20:21.979Z,7.10
2023-04-18T07:22:48.830Z,7.10
2023-04-18T07:25:15.558Z,7.22
2023-04-18T07:27:42.461Z,7.26
2023-04-18T07:30:09.767Z,7.37
2023-04-18T07:32:36.410Z,7.43
2023-04-18T07:35:04.456Z,7.40
2023-04-18T07:37:31.559Z,7.45
2023-04-18T07:39:58.895Z,7.44
2023-04-18T07:42:25.570Z,7.35
2023-04-18T07:44:57.916Z,7.38
2023-04-18T07:47:26.907Z,7.46
2023-04-18T07:49:55.143Z,7.58
2023-04-18T07:52:21.889Z,7.66
2023-04-18T07:54:48.512Z,7.65
2023-04-18T07:57:15.395Z,7.80
2023-04-18T07:59:42.144Z,7.92
2023-04-18T08:02:08.879Z,8.01
2023-04-18T08:04:35.783Z,8.16
2023-04-18T08:07:02.543Z,7.93
2023-04-18T08:09:29.180Z,7.92
2023-04-18T08:11:56.787Z,8.02
2023-04-18T08:14:23.832Z,7.76
2023-04-18T08:16:50.529Z,7.70
2023-04-18T08:19:17.217Z,7.62
2023-04-18T08:21:43.798Z,7.72
2023-04-18T08:24:10.440Z,7.67
2023-04-18T08:26:37.198Z,7.70
2023-04-18T08:29:03.912Z,7.80
2023-04-18T08:31:32.202Z,7.85
2023-04-18T08:33:58.883Z,7.78
2023-04-18T08:36:26.008Z,7.93
2023-04-18T08:38:52.698Z,7.84
2023-04-18T08:41:23.373Z,7.91
2023-04-18T08:43:50.030Z,8.11
2023-04-18T08:46:17.271Z,8.25
2023-04-18T08:48:44.763Z,8.29
2023-04-18T08:51:11.464Z,8.34
2023-04-18T08:53:39.566Z,8.53
2023-04-18T08:56:10.455Z,8.63
2023-04-18T08:58:37.241Z,8.47
2023-04-18T09:01:04.239Z,8.62
2023-04-18T09:03:42.137Z,8.67
2023-04-18T09:06:10.413Z,8.74
2023-04-18T09:08:37.084Z,8.79
2023-04-18T09:11:26.247Z,8.90
2023-04-18T09:13:53.441Z,9.14
2023-04-18T09:16:22.483Z,9.15
2023-04-18T09:19:13.256Z,9.04
2023-04-18T09:21:42.541Z,9.22
2023-04-18T09:24:27.221Z,9.35
2023-04-18T09:26:55.994Z,9.36
2023-04-18T09:29:47.082Z,9.53
2023-04-18T09:32:25.269Z,9.53
2023-04-18T09:34:54.460Z,9.27
2023-04-18T09:37:21.921Z,9.37
2023-04-18T09:39:49.925Z,9.45
2023-04-18T09:42:17.541Z,9.59
2023-04-18T09:45:07.072Z,9.55
2023-04-18T09:47:35.383Z,9.73
2023-04-18T09:50:07.768Z,9.74
2023-04-18T09:52:36.929Z,9.76
2023-04-18T09:55:11.313Z,9.89
2023-04-18T09:57:41.578Z,10.10
2023-04-18T10:00:13.877Z,10.08
2023-04-18T10:02:48.664Z,10.22
2023-04-18T10:05:18.814Z,9.98
2023-04-18T10:07:48.796Z,9.86
2023-04-18T10:10:15.949Z,9.95
2023-04-18T10:12:43.364Z,10.10
2023-04-18T10:15:11.345Z,10.19
2023-04-18T10:18:02.832Z,10.20
2023-04-18T10:20:33.060Z,10.40
2023-04-18T10:23:00.606Z,10.26
2023-04-18T10:25:39.620Z,10.27
2023-04-18T10:28:08.126Z,10.35
2023-04-18T10:30:40.564Z,10.44
2023-04-18T10:33:30.477Z,10.54
2023-04-18T10:36:08.628Z,10.53
2023-04-18T10:38:38.845Z,10.57
2023-04-18T10:41:29.146Z,10.63
2023-04-18T10:44:11.478Z,10.81
2023-04-18T10:46:43.792Z,11.02
2023-04-18T10:49:39.755Z,10.69
2023-04-18T10:52:06.877Z,10.68
2023-04-18T10:54:51.053Z,10.91
2023-04-18T10:57:17.819Z,10.96
2023-04-18T10:59:49.479Z,10.76
2023-04-18T11:02:29.626Z,10.98
2023-04-18T11:04:58.667Z,10.90
2023-04-18T11:07:39.105Z,11.13
2023-04-18T11:10:07.172Z,11.23
2023-04-18T11:12:36.310Z,11.06
2023-04-18T11:15:09.605Z,10.82
2023-04-18T11:17:39.728Z,10.87
2023-04-18T11:20:09.289Z,11.04
2023-04-18T11:22:50.862Z,11.07
2023-04-18T11:25:19.503Z,11.25
2023-04-18T11:27:48.445Z,11.45
2023-04-18T11:30:15.888Z,11.17
2023-04-18T11:32:42.567Z,11.29
2023-04-18T11:35:11.271Z,11.11
2023-04-18T11:37:39.325Z,11.18
2023-04-18T11:40:08.586Z,11.39
2023-04-18T11:42:36.182Z,11.76
2023-04-18T11:45:03.635Z,11.79
2023-04-18T11:47:34.531Z,11.78
2023-04-18T11:50:03.899Z,11.87
2023-04-18T11:52:32.195Z,11.79
2023-04-18T11:55:21.471Z,11.88
2023-04-18T11:57:59.030Z,11.90
2023-04-18T12:00:33.771Z,12.00
2023-04-18T12:03:02.310Z,12.15
2023-04-18T12:05:37.096Z,12.07
2023-04-18T12:08:08.998Z,12.17
2023-04-18T12:10:36.167Z,12.23
2023-04-18T12:13:06.769Z,12.15
2023-04-18T12:15:34.888Z,12.26
2023-04-18T12:18:03.384Z,12.23
2023-04-18T12:20:40.309Z,12.21
2023-04-18T12:23:07.855Z,12.35
2023-04-18T12:25:35.059Z,12.44
2023-04-18T12:28:04.285Z,12.31
2023-04-18T12:30:36.008Z,12.39
2023-04-18T12:33:04.734Z,12.53
2023-04-18T12:35:32.433Z,12.32
2023-04-18T12:38:00.817Z,12.31
2023-04-18T12:40:28.882Z,12.37
2023-04-18T12:42:56.226Z,12.37
2023-04-18T12:45:24.382Z,12.32
2023-04-18T12:47:52.435Z,12.51
2023-04-18T12:50:24.483Z,12.39
2023-04-18T12:52:55.889Z,12.38
2023-04-18T12:55:23.014Z,12.47
2023-04-18T12:57:52.226Z,12.57
2023-04-18T13:00:18.847Z,12.50
2023-04-18T13:02:46.142Z,12.55
2023-04-18T13:05:15.359Z,12.56
2023-04-18T13:07:42.736Z,12.63
2023-04-18T13:10:11.893Z,12.50
2023-04-18T13:12:39.600Z,12.62
2023-04-18T13:15:07.595Z,12.65
2023-04-18T13:17:36.766Z,12.62
2023-04-18T13:20:10.530Z,12.62
2023-04-18T13:22:37.640Z,12.61
2023-04-18T13:25:04.510Z,12.66
2023-04-18T13:27:31.264Z,12.70
2023-04-18T13:29:58.323Z,12.60
2023-04-18T13:32:26.427Z,12.55
2023-04-18T13:34:53.237Z,12.70
2023-04-18T13:37:21.124Z,12.66
2023-04-18T13:39:48.918Z,12.57
2023-04-18T13:42:16.381Z,12.62
2023-04-18T13:44:43.142Z,12.58
2023-04-18T13:47:09.794Z,12.54
2023-04-18T13:49:37.651Z,12.51
2023-04-18T13:52:04.575Z,12.38
2023-04-18T13:54:32.472Z,12.60
2023-04-18T13:57:03.261Z,12.53
2023-04-18T13:59:31.983Z,12.42
2023-04-18T14:01:58.996Z,12.28
2023-04-18T14:04:26.157Z,12.31
2023-04-18T14:06:53.320Z,12.41
2023-04-18T14:09:19.977Z,12.44
2023-04-18T14:11:46.764Z,12.53
2023-04-18T14:14:13.989Z,12.40
2023-04-18T14:16:40.783Z,12.40
2023-04-18T14:19:07.638Z,12.31
2023-04-18T14:21:34.357Z,12.49
2023-04-18T14:24:01.159Z,12.46
2023-04-18T14:26:27.837Z,12.50
2023-04-18T14:28:54.442Z,12.43
2023-04-18T14:31:21.746Z,12.45
2023-04-18T14:33:48.709Z,12.42
2023-04-18T14:36:16.864Z,12.48
2023-04-18T14:38:48.184Z,12.47
2023-04-18T14:41:15.020Z,12.46
2023-04-18T14:43:41.622Z,12.51
2023-04-18T14:46:18.137Z,12.42
2023-04-18T14:48:46.547Z,12.37
2023-04-18T14:51:14.551Z,12.26
2023-04-18T14:53:41.503Z,12.40
2023-04-18T14:56:08.279Z,12.48
2023-04-18T14:58:34.898Z,12.51
2023-04-18T15:01:01.904Z,12.64
2023-04-18T15:03:28.875Z,12.69
2023-04-18T15:05:56.430Z,12.67
2023-04-18T15:08:23.072Z,12.66
2023-04-18T15:10:49.651Z,12.49
2023-04-18T15:13:16.282Z,12.38
2023-04-18T15:15:44.154Z,12.46
2023-04-18T15:18:11.286Z,12.43
2023-04-18T15:20:39.526Z,12.49
2023-04-18T15:23:07.179Z,12.40
2023-04-18T15:25:35.149Z,12.62
2023-04-18T15:28:01.822Z,12.63
2023-04-18T15:30:28.561Z,12.46
2023-04-18T15:32:55.743Z,12.49
2023-04-18T15:35:22.563Z,12.28
2023-04-18T15:37:49.302Z,12.44
2023-04-18T15:40:18.831Z,12.47
2023-04-18T15:42:45.804Z,12.39
2023-04-18T15:45:12.525Z,12.28
2023-04-18T15:47:39.251Z,12.36
2023-04-18T15:50:06.995Z,12.17
2023-04-18T15:52:33.924Z,12.08
2023-04-18T15:55:00.825Z,12.04
2023-04-18T15:57:29.706Z,12.30
2023-04-18T15:59:56.766Z,12.25
2023-04-18T16:02:23.495Z,12.31
2023-04-18T16:04:50.255Z,12.39
2023-04-18T16:07:16.996Z,12.24
2023-04-18T16:09:43.674Z,12.17
2023-04-18T16:12:10.311Z,12.02
2023-04-18T16:14:38.096Z,12.05
2023-04-18T16:17:04.776Z,12.15
2023-04-18T16:19:33.304Z,12.12
2023-04-18T16:22:01.220Z,11.98
2023-04-18T16:24:30.205Z,12.00
2023-04-18T16:26:56.953Z,11.94
2023-04-18T16:29:23.852Z,11.92
2023-04-18T16:31:51.798Z,12.00
2023-04-18T16:34:18.642Z,11.91
2023-04-18T16:36:45.225Z,11.85
2023-04-18T16:39:12.229Z,11.97
2023-04-18T16:41:38.948Z,11.90
2023-04-18T16:44:05.583Z,12.00
2023-04-18T16:46:32.539Z,11.84
2023-04-18T16:48:59.537Z,11.61
2023-04-18T16:51:26.943Z,11.52
2023-04-18T16:53:53.531Z,11.49
2023-04-18T16:56:20.246Z,11.57
2023-04-18T16:58:46.962Z,11.43
2023-04-18T17:01:13.576Z,11.43
2023-04-18T17:03:40.355Z,11.32
2023-04-18T17:06:07.124Z,11.25
2023-04-18T17:08:34.225Z,11.20
2023-04-18T17:11:02.330Z,11.18
2023-04-18T17:13:31.448Z,11.25
2023-04-18T17:15:58.628Z,11.21
2023-04-18T17:18:25.379Z,11.25
2023-04-18T17:20:52.246Z,11.27
2023-04-18T17:23:18.909Z,11.34
2023-04-18T17:25:46.300Z,11.51
2023-04-18T17:28:13.912Z,11.30
2023-04-18T17:30:43.761Z,11.24
2023-04-18T17:33:10.759Z,11.17
2023-04-18T17:35:39.916Z,11.05
2023-04-18T17:38:06.603Z,11.08
2023-04-18T17:40:33.334Z,11.05
2023-04-18T17:42:59.918Z,10.93
2023-04-18T17:45:26.598Z,10.87
2023-04-18T17:47:53.816Z,10.84
2023-04-18T17:50:20.632Z,10.90
2023-04-18T17:52:47.340Z,10.81
2023-04-18T17:55:14.008Z,10.74
2023-04-18T17:57:40.641Z,10.78
2023-04-18T18:00:11.114Z,10.71
2023-04-18T18:02:38.820Z,10.61
2023-04-18T18:05:05.857Z,10.61
2023-04-18T18:07:34.866Z,10.56
2023-04-18T18:10:02.498Z,10.42
2023-04-18T18:12:29.259Z,10.30
2023-04-18T18:14:57.325Z,10.27
2023-04-18T18:17:24.621Z,10.24
2023-04-18T18:19:51.243Z,10.20
2023-04-18T18:22:18.334Z,10.16
2023-04-18T18:24:45.570Z,10.10
2023-04-18T18:27:12.230Z,10.03
2023-04-18T18:29:38.793Z,9.97
2023-04-18T18:32:05.843Z,9.93
2023-04-18T18:34:32.419Z,9.80
2023-04-18T18:36:59.019Z,9.71
2023-04-18T18:39:25.660Z,9.66
2023-04-18T18:41:52.317Z,9.63
2023-04-18T18:44:19.026Z,9.58
2023-04-18T18:46:45.674Z,9.55
2023-04-18T18:49:12.481Z,9.50
2023-04-18T18:51:40.949Z,9.47
2023-04-18T18:54:07.655Z,9.45
2023-04-18T18:56:34.303Z,9.48
2023-04-18T18:59:00.889Z,9.45
2023-04-18T19:01:30.209Z,9.43
2023-04-18T19:03:56.934Z,9.45
2023-04-18T19:06:23.726Z,9.44
2023-04-18T19:08:50.365Z,9.44
2023-04-18T19:11:18.275Z,9.40
2023-04-18T19:13:45.702Z,9.39
2023-04-18T19:16:12.730Z,9.36
2023-04-18T19:18:40.673Z,9.36
2023-04-18T19:21:07.279Z,9.32
2023-04-18T19:23:34.055Z,9.34
2023-04-18T19:26:00.699Z,9.27
2023-04-18T19:28:27.729Z,9.26
2023-04-18T19:30:54.379Z,9.22
2023-04-18T19:33:21.353Z,9.20
2023-04-18T19:35:47.957Z,9.21
2023-04-18T19:38:14.549Z,9.19
2023-04-18T19:40:41.194Z,9.15
2023-04-18T19:43:07.802Z,9.12
2023-04-18T19:45:34.645Z,9.09
2023-04-18T19:48:01.328Z,9.04
2023-04-18T19:50:28.404Z,8.99
2023-04-18T19:52:55.014Z,8.94
2023-04-18T19:55:21.886Z,8.85
2023-04-18T19:57:48.603Z,8.83
2023-04-18T20:00:15.980Z,8.75
2023-04-18T20:02:43.010Z,8.69
2023-04-18T20:05:10.218Z,8.59
2023-04-18T20:07:37.174Z,8.51
2023-04-18T20:10:04.537Z,8.36
2023-04-18T20:12:31.478Z,8.27
2023-04-18T20:14:59.013Z,8.19
2023-04-18T20:17:26.199Z,8.15
2023-04-18T20:19:53.100Z,8.07
2023-04-18T20:22:19.896Z,8.00
2023-04-18T20:24:48.195Z,7.91
2023-04-18T20:27:15.339Z,7.88
2023-04-18T20:29:42.680Z,7.86
2023-04-18T20:32:11.618Z,7.74
2023-04-18T20:34:38.578Z,7.66
2023-04-18T20:37:09.276Z,7.59
2023-04-18T20:39:38.027Z,7.55
2023-04-18T20:42:04.934Z,7.46
2023-04-18T20:44:34.358Z,7.41
2023-04-18T20:47:01.187Z,7.40
2023-04-18T20:49:29.557Z,7.33
2023-04-18T20:51:56.318Z,7.31
2023-04-18T20:54:23.138Z,7.32
2023-04-18T20:56:49.738Z,7.33
2023-04-18T20:59:16.367Z,7.30
2023-04-18T21:01:43.040Z,7.18
2023-04-18T21:04:09.755Z,7.18
2023-04-18T21:06:36.766Z,7.13
2023-04-18T21:09:03.860Z,7.06
2023-04-18T21:11:30.683Z,7.07
2023-04-18T21:13:57.330Z,7.04
2023-04-18T21:16:24.336Z,7.02
2023-04-18T21:18:51.042Z,7.05
2023-04-18T21:21:17.959Z,7.04
2023-04-18T21:23:44.916Z,7.01
2023-04-18T21:26:13.649Z,7.03
2023-04-18T21:28:57.614Z,7.02
2023-04-18T21:31:26.155Z,7.01
2023-04-18T21:33:57.152Z,7.09
2023-04-18T21:36:26.513Z,7.06
2023-04-18T21:38:54.541Z,7.02
2023-04-18T21:41:21.564Z,7.06
2023-04-18T21:43:48.809Z,7.06
2023-04-18T21:46:16.151Z,7.09
2023-04-18T21:48:45.265Z,7.11
2023-04-18T21:51:14.071Z,7.12
2023-04-18T21:53:41.705Z,7.12
2023-04-18T21:56:09.118Z,7.11
2023-04-18T21:58:35.883Z,7.06
2023-04-18T22:01:02.776Z,7.09
2023-04-18T22:03:29.749Z,7.16
2023-04-18T22:05:56.702Z,7.17
2023-04-18T22:08:26.309Z,7.18
2023-04-18T22:10:57.762Z,7.20
2023-04-18T22:13:25.675Z,7.21
2023-04-18T22:15:52.271Z,7.23
2023-04-18T22:18:19.202Z,7.26
2023-04-18T22:20:46.962Z,7.30
2023-04-18T22:23:14.185Z,7.28
2023-04-18T22:25:40.983Z,7.25
2023-04-18T22:28:07.772Z,7.26
2023-04-18T22:30:34.776Z,7.28
2023-04-18T22:33:01.604Z,7.27
2023-04-18T22:35:28.449Z,7.30
2023-04-18T22:37:55.888Z,7.26
2023-04-18T22:40:22.580Z,7.25
2023-04-18T22:42:51.859Z,7.26
2023-04-18T22:45:19.456Z,7.32
2023-04-18T22:47:46.824Z,7.34
2023-04-18T22:50:14.292Z,7.28
2023-04-18T22:52:41.318Z,7.29
2023-04-18T22:55:08.644Z,7.30
2023-04-18T22:57:35.358Z,7.30
2023-04-18T23:00:02.107Z,7.29
2023-04-18T23:02:28.862Z,7.26
2023-04-18T23:04:58.436Z,7.27
2023-04-18T23:07:25.333Z,7.24
2023-04-18T23:09:51.939Z,7.28
2023-04-18T23:12:18.569Z,7.32
2023-04-18T23:14:45.332Z,7.27
2023-04-18T23:17:11.964Z,7.27
2023-04-18T23:19:38.971Z,7.33
2023-04-18T23:22:05.742Z,7.33
2023-04-18T23:24:32.374Z,7.36
2023-04-18T23:26:59.068Z,7.37
2023-04-18T23:29:25.663Z,7.40
2023-04-18T23:31:52.285Z,7.37
2023-04-18T23:34:18.895Z,7.37
2023-04-18T23:36:45.807Z,7.40
2023-04-18T23:39:12.467Z,7.35
2023-04-18T23:41:39.082Z,7.31
2023-04-18T23:44:05.779Z,7.32
2023-04-18T23:46:34.290Z,7.36
2023-04-18T23:49:02.368Z,7.38
2023-04-18T23:51:29.034Z,7.36
2023-04-18T23:53:55.631Z,7.36
2023-04-18T23:56:23.221Z,7.36
2023-04-18T23:58:50.623Z,7.35
